Time;durP1;ratioP1;P1;durP2;ratioP2;P2;SDS_P1;SDS_P2;PMS_P1;PMS_P2;Temp;Humidity;BMP_temperature;BMP_pressure;BME280_temperature;BME280_humidity;BME280_pressure;Samples;Min_cycle;Max_cycle;Signal;HPM_P1;HPM_P2
2022/01/15 00:00:54;;;;;;;25.33;15.70;;;;;;;3.04;80.66;101806.50;10198189;28;20051;-61
2022/01/15 00:05:55;;;;;;;23.13;15.65;;;;;;;3.00;80.84;101783.78;10194863;28;20054;-61
2022/01/15 00:10:57;;;;;;;21.65;14.07;;;;;;;2.97;80.38;101789.13;10194224;28;20174;-60
2022/01/15 00:16:29;;;;;;;23.92;15.73;;;;;;;3.08;80.38;101802.91;10202393;28;20070;-61
2022/01/15 00:21:22;;;;;;;22.85;15.27;;;;;;;3.05;80.57;101781.03;10204834;28;20206;-61
2022/01/15 00:26:24;;;;;;;25.73;16.55;;;;;;;3.02;80.24;101779.38;10195126;28;20044;-62
2022/01/15 00:31:26;;;;;;;23.58;15.05;;;;;;;3.13;80.53;101810.69;10195218;28;20078;-60
2022/01/15 00:36:28;;;;;;;22.83;14.52;;;;;;;3.00;80.65;101795.19;10197298;28;20130;-61
2022/01/15 00:41:29;;;;;;;20.52;13.93;;;;;;;3.03;80.20;101807.38;10193142;28;20089;-60
2022/01/15 00:46:30;;;;;;;19.77;14.07;;;;;;;3.03;80.26;101798.63;10203733;28;20581;-61
2022/01/15 00:51:32;;;;;;;22.92;15.07;;;;;;;3.07;79.87;101787.16;10204192;28;20707;-61
2022/01/15 00:56:33;;;;;;;22.25;15.07;;;;;;;3.11;80.09;101788.81;10192569;28;20062;-60
2022/01/15 01:01:35;;;;;;;26.80;15.25;;;;;;;3.12;80.21;101783.50;10198105;28;20266;-62
2022/01/15 01:06:36;;;;;;;24.67;16.30;;;;;;;2.97;80.37;101765.44;10197859;28;20047;-61
2022/01/15 01:11:51;;;;;;;22.02;13.85;;;;;;;3.06;80.61;101759.94;10291957;28;20119;-62
2022/01/15 01:27:44;;;;;;;23.98;15.18;;;;;;;3.16;80.33;101771.13;10195532;28;20501;-62
2022/01/15 01:32:49;;;;;;;20.83;13.80;;;;;;;3.16;79.98;101745.66;10200084;28;20048;-62
2022/01/15 01:37:52;;;;;;;21.40;12.85;;;;;;;3.23;79.77;101754.28;10194788;28;20553;-62
2022/01/15 01:43:08;;;;;;;22.88;14.77;;;;;;;3.19;79.82;101735.06;10191870;28;20130;-61
2022/01/15 01:48:09;;;;;;;22.30;15.13;;;;;;;3.21;79.99;101750.81;10201774;28;20189;-60
2022/01/15 01:53:11;;;;;;;24.05;15.30;;;;;;;3.15;80.17;101729.91;10193124;28;20051;-61
2022/01/15 01:58:12;;;;;;;22.02;14.88;;;;;;;3.15;80.23;101730.81;10207468;28;20465;-60
2022/01/15 02:03:13;;;;;;;22.58;15.10;;;;;;;3.16;80.10;101716.72;10197278;28;20138;-60
2022/01/15 02:08:15;;;;;;;24.15;16.05;;;;;;;3.16;80.65;101716.72;10206177;28;20789;-61
2022/01/15 02:13:18;;;;;;;22.95;15.48;;;;;;;3.28;80.51;101733.97;10206329;28;20441;-60
2022/01/15 02:18:20;;;;;;;26.70;16.05;;;;;;;3.28;80.52;101731.31;10199703;28;20128;-61
2022/01/15 02:23:34;;;;;;;25.42;15.60;;;;;;;3.32;80.71;101726.88;10198317;28;20066;-61
2022/01/15 02:28:38;;;;;;;25.23;16.53;;;;;;;3.28;80.49;101718.16;10202094;28;20043;-61
2022/01/15 02:33:42;;;;;;;24.10;16.42;;;;;;;3.28;80.71;101725.22;10199498;28;20063;-60
2022/01/15 02:38:44;;;;;;;26.92;16.10;;;;;;;3.23;80.94;101700.75;10222116;28;20057;-61
2022/01/15 02:43:45;;;;;;;26.80;16.75;;;;;;;3.30;80.73;101720.75;10204555;28;20053;-61
2022/01/15 02:48:53;;;;;;;22.20;14.95;;;;;;;3.24;80.67;101691.97;10199892;28;20048;-60
2022/01/15 02:53:55;;;;;;;25.02;16.67;;;;;;;3.31;80.97;101704.06;10193176;28;20043;-60
2022/01/15 02:58:57;;;;;;;20.42;13.95;;;;;;;3.35;80.77;101705.72;10211845;28;20055;-61
2022/01/15 03:03:59;;;;;;;25.05;16.58;;;;;;;3.24;80.93;101682.31;10203940;28;20537;-60
2022/01/15 03:09:00;;;;;;;24.95;16.67;;;;;;;3.31;81.00;101694.41;10204799;28;20342;-60
2022/01/15 03:14:02;;;;;;;25.35;15.20;;;;;;;3.34;81.11;101693.44;10204521;28;20482;-60
2022/01/15 03:19:03;;;;;;;21.63;14.65;;;;;;;3.31;81.09;101677.75;10212002;28;20099;-60
2022/01/15 03:24:04;;;;;;;23.58;15.38;;;;;;;3.32;81.28;101680.34;10207810;28;20123;-59
2022/01/15 03:29:06;;;;;;;22.05;14.25;;;;;;;3.40;81.11;101698.56;10202275;28;20134;-60
2022/01/15 03:34:07;;;;;;;23.45;15.75;;;;;;;3.42;81.13;101702.00;10200271;28;20047;-59
2022/01/15 03:39:08;;;;;;;20.67;14.18;;;;;;;3.39;81.58;101693.31;10196116;28;20051;-61
2022/01/15 03:44:10;;;;;;;21.33;14.10;;;;;;;3.42;81.30;101693.25;10201433;28;20051;-60
2022/01/15 03:49:11;;;;;;;22.67;14.90;;;;;;;3.39;81.48;101672.28;10197881;28;20104;-60
2022/01/15 03:54:13;;;;;;;22.98;15.00;;;;;;;3.41;81.47;101679.22;10194094;28;20126;-60
2022/01/15 03:59:14;;;;;;;20.38;14.15;;;;;;;3.37;81.09;101674.94;10203848;28;20051;-60
2022/01/15 04:04:17;;;;;;;22.77;14.77;;;;;;;3.40;81.50;101669.59;10196418;28;20048;-60
2022/01/15 04:09:18;;;;;;;24.15;14.85;;;;;;;3.44;81.45;101673.88;10193279;28;20105;-60
2022/01/15 04:14:20;;;;;;;24.52;15.80;;;;;;;3.48;81.06;101670.25;10206250;28;20099;-60
2022/01/15 04:19:22;;;;;;;20.13;13.80;;;;;;;3.45;81.04;101662.44;10206726;28;20047;-60
2022/01/15 04:24:23;;;;;;;24.58;16.15;;;;;;;3.43;81.13;101658.97;10341855;22;20047;-71
2022/01/15 04:29:24;;;;;;;22.88;14.90;;;;;;;3.49;80.55;101661.44;10486871;28;20582;-71
2022/01/15 04:34:28;;;;;;;19.83;13.57;;;;;;;3.53;80.61;101651.69;10496991;28;20044;-71
2022/01/15 04:39:29;;;;;;;18.80;13.50;;;;;;;3.52;80.45;101644.69;10486375;28;20142;-70
2022/01/15 04:44:31;;;;;;;16.30;11.85;;;;;;;3.56;80.13;101637.56;10485557;28;20131;-71
2022/01/15 04:49:33;;;;;;;15.35;10.90;;;;;;;3.61;79.65;101639.16;10488254;28;20052;-68
2022/01/15 04:54:36;;;;;;;15.20;10.93;;;;;;;3.59;79.37;101640.09;10490992;28;20494;-69
2022/01/15 04:59:38;;;;;;;15.57;10.23;;;;;;;3.60;79.38;101631.28;10491368;28;20052;-70
2022/01/15 05:04:39;;;;;;;12.55;8.77;;;;;;;3.60;79.28;101626.03;10494975;28;20054;-70
2022/01/15 05:09:44;;;;;;;11.70;8.65;;;;;;;3.68;79.26;101631.94;10500757;28;20036;-68
2022/01/15 05:14:46;;;;;;;10.57;7.97;;;;;;;3.68;79.21;101624.06;10526312;28;20053;-71
2022/01/15 05:19:47;;;;;;;10.73;7.55;;;;;;;3.75;78.62;101625.56;10528035;28;20058;-73
2022/01/15 05:24:49;;;;;;;9.88;7.30;;;;;;;3.72;78.28;101618.66;10500229;28;20053;-70
2022/01/15 05:29:50;;;;;;;10.02;8.05;;;;;;;3.80;78.63;101613.13;10490890;28;20044;-71
2022/01/15 05:34:51;;;;;;;11.73;9.85;;;;;;;3.75;78.42;101603.66;10493140;28;20050;-70
2022/01/15 05:39:53;;;;;;;11.82;9.38;;;;;;;3.75;78.93;101609.75;10491940;28;20532;-69
2022/01/15 05:44:54;;;;;;;10.50;9.07;;;;;;;3.77;79.00;101613.22;10487058;28;20127;-70
2022/01/15 05:49:56;;;;;;;11.50;9.20;;;;;;;3.77;79.42;101602.69;10499989;28;20569;-70
2022/01/15 05:54:57;;;;;;;11.50;9.68;;;;;;;3.83;79.66;101602.50;10494580;28;20051;-70
2022/01/15 05:59:59;;;;;;;14.68;11.63;;;;;;;3.83;79.68;101605.13;10494823;28;20733;-70
2022/01/15 06:05:00;;;;;;;14.45;11.02;;;;;;;3.86;79.57;101599.78;10498115;28;20052;-70
2022/01/15 06:10:03;;;;;;;12.80;9.30;;;;;;;3.89;79.30;101591.78;10498812;28;20526;-71
2022/01/15 06:15:05;;;;;;;10.70;8.43;;;;;;;3.91;79.34;101596.16;10495732;28;20152;-71
2022/01/15 06:20:08;;;;;;;11.95;9.25;;;;;;;3.89;79.44;101591.78;10499471;28;20063;-71
2022/01/15 06:25:10;;;;;;;11.60;8.70;;;;;;;3.92;79.55;101595.22;10519182;28;20048;-71
2022/01/15 06:30:12;;;;;;;12.93;8.90;;;;;;;3.92;79.44;101596.09;10521371;28;20086;-69
2022/01/15 06:35:14;;;;;;;11.98;7.90;;;;;;;3.96;79.36;101592.44;10512063;28;20537;-70
2022/01/15 06:40:16;;;;;;;10.13;7.60;;;;;;;3.94;79.17;101583.72;10498206;28;20062;-69
2022/01/15 06:45:18;;;;;;;10.65;7.35;;;;;;;3.98;79.53;101585.38;10494647;28;20183;-71
2022/01/15 06:50:19;;;;;;;9.05;7.32;;;;;;;3.97;78.93;101585.41;10490601;28;20455;-69
2022/01/15 06:55:21;;;;;;;9.30;7.40;;;;;;;4.00;79.09;101577.41;10477792;28;20055;-70
2022/01/15 07:00:24;;;;;;;8.38;6.40;;;;;;;4.03;78.72;101577.31;10486062;28;20620;-68
2022/01/15 07:05:25;;;;;;;7.78;6.00;;;;;;;4.03;78.81;101585.22;10493035;28;20066;-69
2022/01/15 07:10:27;;;;;;;7.00;5.93;;;;;;;4.02;78.54;101586.13;10496154;28;20044;-67
2022/01/15 07:15:28;;;;;;;8.70;6.25;;;;;;;4.06;78.68;101582.47;10504137;27;20142;-69
2022/01/15 07:20:30;;;;;;;8.48;6.25;;;;;;;4.07;78.58;101589.47;10502029;28;20050;-70
2022/01/15 07:25:31;;;;;;;12.10;8.73;;;;;;;4.10;78.49;101592.00;10504914;27;20106;-68
2022/01/15 07:30:33;;;;;;;10.85;7.93;;;;;;;4.06;78.49;101583.31;10494371;27;20093;-68
2022/01/15 07:35:34;;;;;;;12.70;8.73;;;;;;;4.02;78.96;101587.00;10504994;27;20048;-67
2022/01/15 07:40:35;;;;;;;14.23;9.88;;;;;;;4.06;78.72;101585.13;10500249;28;20052;-67
2022/01/15 07:45:37;;;;;;;13.43;9.68;;;;;;;4.11;78.90;101585.81;10495163;28;20752;-66
2022/01/15 07:50:38;;;;;;;13.32;9.35;;;;;;;4.11;78.81;101591.09;10503346;27;20047;-68
2022/01/15 07:55:40;;;;;;;16.30;11.05;;;;;;;4.11;79.67;101598.13;10495230;28;20047;-66
2022/01/15 08:00:44;;;;;;;15.20;10.05;;;;;;;4.10;79.10;101597.28;10498665;28;20098;-67
2022/01/15 08:05:45;;;;;;;14.83;10.53;;;;;;;4.11;79.44;101599.00;10500471;28;20051;-69
2022/01/15 08:10:47;;;;;;;14.35;10.75;;;;;;;4.25;79.79;101602.06;10499099;28;20581;-67
2022/01/15 08:15:50;;;;;;;16.85;10.40;;;;;;;4.28;79.22;101592.31;10509360;28;20581;-69
2022/01/15 08:20:52;;;;;;;14.68;9.68;;;;;;;4.23;79.04;101601.25;10517078;27;20052;-67
2022/01/15 08:25:53;;;;;;;12.80;7.53;;;;;;;4.28;78.98;101592.31;10524800;28;20194;-68
2022/01/15 08:30:54;;;;;;;8.93;6.15;;;;;;;4.30;78.72;101591.34;10531150;28;20052;-69
2022/01/15 08:35:56;;;;;;;9.70;7.28;;;;;;;4.33;78.78;101591.25;10505486;28;20048;-73
2022/01/15 08:40:58;;;;;;;8.70;6.03;;;;;;;4.34;78.75;101587.72;10516396;27;20064;-68
2022/01/15 08:45:59;;;;;;;8.18;5.90;;;;;;;4.37;78.59;101577.06;10518608;27;20075;-69
2022/01/15 08:51:01;;;;;;;8.85;6.68;;;;;;;4.40;78.45;101586.66;10526964;28;20066;-71
2022/01/15 08:56:03;;;;;;;9.68;7.22;;;;;;;4.41;78.76;101583.09;10532441;28;20131;-69
2022/01/15 09:01:05;;;;;;;7.97;6.53;;;;;;;4.39;78.63;101569.97;10506792;27;20147;-69
2022/01/15 09:06:07;;;;;;;8.45;6.30;;;;;;;4.41;78.51;101568.16;10495575;28;20071;-70
2022/01/15 09:11:08;;;;;;;9.18;6.82;;;;;;;4.39;78.69;101569.97;10497579;28;20051;-70
2022/01/15 09:16:10;;;;;;;8.32;6.43;;;;;;;4.49;78.64;101559.97;10499997;28;20055;-70
2022/01/15 09:21:11;;;;;;;4.60;3.75;;;;;;;4.31;78.57;101572.00;10495775;28;20052;-67
2022/01/15 09:26:21;;;;;;;5.78;4.95;;;;;;;4.39;78.64;101569.09;10486653;28;20453;-69
2022/01/15 09:31:22;;;;;;;6.50;4.88;;;;;;;4.41;78.45;101554.97;10494042;28;20109;-68
2022/01/15 09:36:23;;;;;;;5.07;4.50;;;;;;;4.51;78.37;101558.13;10488112;28;20056;-69
2022/01/15 09:41:26;;;;;;;6.30;5.15;;;;;;;4.54;78.18;101547.47;10487822;28;20048;-73
2022/01/15 09:46:28;;;;;;;6.00;5.15;;;;;;;4.58;78.23;101549.09;10490686;28;20135;-68
2022/01/15 09:51:30;;;;;;;5.60;5.03;;;;;;;4.52;78.02;101538.78;10500544;28;20059;-68
2022/01/15 09:56:31;;;;;;;6.90;5.68;;;;;;;4.68;78.94;101548.78;10495408;28;20214;-69
2022/01/15 10:01:33;;;;;;;6.32;4.55;;;;;;;4.55;77.57;101543.94;10491448;28;20074;-69
2022/01/15 10:06:34;;;;;;;5.47;4.93;;;;;;;4.54;77.83;101544.84;10491193;28;20457;-70
2022/01/15 10:11:52;;;;;;;5.35;4.78;;;;;;;4.46;78.51;101536.34;10495560;28;21211;-70
2022/01/15 10:16:58;;;;;;;6.95;5.63;;;;;;;4.52;78.06;101533.50;10498245;28;20051;-70
2022/01/15 10:22:11;;;;;;;7.57;5.70;;;;;;;4.57;78.01;101531.53;10496721;27;20058;-66
2022/01/15 10:27:43;;;;;;;7.60;5.72;;;;;;;4.47;78.13;101524.00;10508402;28;20123;-67
2022/01/15 10:33:08;;;;;;;7.75;5.10;;;;;;;4.45;77.85;101518.78;10527585;27;20647;-69
2022/01/15 10:38:13;;;;;;;6.90;5.13;;;;;;;4.36;78.64;101516.47;10535863;28;20422;-68
2022/01/15 10:43:17;;;;;;;6.55;5.72;;;;;;;4.42;78.71;101516.25;10531995;28;20071;-68
2022/01/15 10:48:20;;;;;;;;;;;;;;;4.45;78.55;101510.88;10526459;27;20056;-70
2022/01/15 10:53:33;;;;;;;6.05;5.35;;;;;;;4.40;78.86;101507.56;10513874;27;20168;-67
2022/01/15 10:58:35;;;;;;;6.75;6.07;;;;;;;4.45;78.86;101500.34;10498149;28;20130;-68
2022/01/15 11:03:40;;;;;;;7.15;6.45;;;;;;;4.52;78.59;101496.56;10499877;28;20082;-69
2022/01/15 11:08:44;;;;;;;7.05;6.28;;;;;;;4.47;78.54;101474.75;10493234;28;20092;-67
2022/01/15 11:13:46;;;;;;;7.27;6.57;;;;;;;4.46;78.68;101470.44;10505095;27;20142;-69
2022/01/15 11:18:50;;;;;;;5.53;4.80;;;;;;;4.47;78.72;101464.22;10515136;28;20685;-71
2022/01/15 11:23:52;;;;;;;5.15;4.57;;;;;;;4.59;78.66;101461.16;10517747;27;20055;-70
2022/01/15 11:28:55;;;;;;;5.57;4.95;;;;;;;4.69;78.12;101455.56;10517851;27;20076;-67
2022/01/15 11:34:01;;;;;;;5.40;4.60;;;;;;;4.70;78.14;101444.94;10518433;28;20203;-71
2022/01/15 11:39:25;;;;;;;7.30;4.80;;;;;;;4.82;77.69;101451.53;10523796;27;20044;-68
2022/01/15 11:44:29;;;;;;;5.00;4.50;;;;;;;4.58;78.27;101454.16;10503936;28;20044;-70
2022/01/15 11:49:36;;;;;;;5.88;4.82;;;;;;;4.64;78.09;101455.72;10506899;27;20139;-70
2022/01/15 11:54:58;;;;;;;5.63;5.13;;;;;;;4.75;78.14;101439.50;10498397;28;20130;-69
2022/01/15 12:00:05;;;;;;;6.43;5.82;;;;;;;4.76;78.53;101435.94;10496163;27;20044;-67
2022/01/15 12:05:18;;;;;;;5.43;4.95;;;;;;;4.79;77.90;101430.56;10494752;28;20052;-66
2022/01/15 12:10:20;;;;;;;5.68;5.18;;;;;;;4.84;77.85;101411.91;10491111;28;20054;-72
2022/01/15 12:15:28;;;;;;;5.35;4.90;;;;;;;4.81;77.54;101407.59;10498823;27;20060;-68
2022/01/15 12:20:33;;;;;;;6.00;5.30;;;;;;;4.79;77.98;101404.16;10493758;28;20190;-68
2022/01/15 12:25:34;;;;;;;5.68;5.18;;;;;;;4.74;77.85;101400.84;10493906;28;20048;-67
2022/01/15 12:30:40;;;;;;;6.30;5.80;;;;;;;4.77;78.09;101396.31;10492919;28;20130;-65
2022/01/15 12:35:45;;;;;;;6.13;5.53;;;;;;;4.78;78.02;101391.91;10497250;28;20479;-68
2022/01/15 12:40:53;;;;;;;6.18;5.57;;;;;;;4.76;78.23;101383.19;10495148;28;20079;-68
2022/01/15 12:45:58;;;;;;;6.28;5.70;;;;;;;4.85;77.78;101381.94;10488695;28;20044;-70
2022/01/15 12:51:02;;;;;;;6.03;5.50;;;;;;;4.78;77.79;101381.34;10501445;28;20115;-69
2022/01/15 12:56:12;;;;;;;8.47;7.57;;;;;;;4.89;77.92;101381.78;10495938;28;20086;-70
2022/01/15 13:01:21;;;;;;;6.95;6.35;;;;;;;4.93;77.50;101369.34;10497328;28;20043;-69
2022/01/15 13:06:26;;;;;;;6.28;5.57;;;;;;;4.93;77.54;101364.91;10491899;28;20232;-67
2022/01/15 13:11:30;;;;;;;6.40;5.80;;;;;;;4.93;77.59;101357.00;10498003;28;20699;-67
2022/01/15 13:16:33;;;;;;;7.30;6.60;;;;;;;4.95;77.25;101359.56;10488456;28;20139;-68
2022/01/15 13:21:36;;;;;;;7.00;6.40;;;;;;;4.97;77.43;101352.47;10500359;28;20098;-68
2022/01/15 13:26:40;;;;;;;7.30;6.70;;;;;;;4.95;77.38;101352.53;10482281;28;20052;-68
2022/01/15 13:31:44;;;;;;;6.30;5.80;;;;;;;5.02;77.08;101347.00;10487913;28;20054;-70
2022/01/15 13:36:47;;;;;;;6.22;5.72;;;;;;;4.98;77.20;101338.34;10486621;28;20059;-68
2022/01/15 13:41:48;;;;;;;5.68;5.18;;;;;;;5.00;77.16;101319.81;10492444;28;20048;-70
2022/01/15 13:46:50;;;;;;;5.97;5.43;;;;;;;4.99;77.18;101315.47;10499595;28;20070;-68
2022/01/15 13:57:15;;;;;;;5.47;5.07;;;;;;;4.93;77.50;101312.13;10505741;27;20362;-68
2022/01/15 14:02:27;;;;;;;5.93;5.38;;;;;;;4.91;77.50;101305.22;10506662;28;20646;-66
2022/01/15 14:07:29;;;;;;;6.15;5.55;;;;;;;4.91;77.46;101299.94;10503732;28;20059;-70
2022/01/15 14:12:32;;;;;;;5.30;4.90;;;;;;;4.95;77.33;101302.41;10502277;28;20342;-68
2022/01/15 14:17:35;;;;;;;5.63;5.13;;;;;;;5.01;77.23;101295.13;10512530;28;20059;-68
2022/01/15 14:22:45;;;;;;;5.70;5.22;;;;;;;5.00;76.70;101290.78;10516866;28;20078;-69
2022/01/15 14:28:07;;;;;;;4.43;4.10;;;;;;;5.01;76.34;101287.22;10518635;27;20140;-70
2022/01/15 14:33:10;;;;;;;5.30;4.80;;;;;;;4.92;76.66;101291.97;10506407;27;20044;-68
2022/01/15 14:38:16;;;;;;;4.93;4.32;;;;;;;4.85;77.07;101274.66;10527080;28;20083;-65
2022/01/15 14:43:17;;;;;;;5.10;4.70;;;;;;;4.82;77.06;101271.25;10521936;27;20047;-67
2022/01/15 14:48:19;;;;;;;7.40;5.18;;;;;;;4.83;77.12;101268.56;10512187;28;20147;-68
2022/01/15 14:53:20;;;;;;;8.18;7.30;;;;;;;4.59;78.21;101267.75;10497895;28;20050;-68
2022/01/15 14:58:22;;;;;;;8.63;7.03;;;;;;;4.66;78.45;101260.50;10506474;27;20241;-67
2022/01/15 15:03:24;;;;;;;5.50;5.00;;;;;;;4.77;78.03;101250.34;10497782;28;20056;-70
2022/01/15 15:08:25;;;;;;;5.60;5.10;;;;;;;4.85;77.59;101250.03;10515186;28;20060;-71
2022/01/15 15:13:27;;;;;;;5.55;5.05;;;;;;;4.82;77.25;101245.75;10511995;28;20543;-68
2022/01/15 15:18:29;;;;;;;5.63;5.13;;;;;;;4.90;76.80;101245.44;10517121;27;20658;-67
2022/01/15 15:23:30;;;;;;;4.53;4.13;;;;;;;4.77;77.39;101234.53;10529029;28;20078;-72
2022/01/15 15:28:35;;;;;;;6.38;5.72;;;;;;;4.62;77.95;101233.34;10523236;27;20087;-69
2022/01/15 15:33:39;;;;;;;4.65;4.25;;;;;;;4.68;78.30;101242.81;10520530;28;20070;-71
2022/01/15 15:38:41;;;;;;;5.75;5.15;;;;;;;4.77;77.73;101239.78;10518858;27;20040;-68
2022/01/15 15:43:42;;;;;;;5.93;5.43;;;;;;;4.76;77.45;101248.66;10510792;28;20040;-69
2022/01/15 15:48:45;;;;;;;5.85;5.35;;;;;;;4.81;77.29;101244.03;10513552;28;20559;-70
2022/01/15 15:53:47;;;;;;;5.78;5.28;;;;;;;4.70;77.01;101244.47;10509966;28;20158;-70
2022/01/15 15:58:48;;;;;;;5.40;5.00;;;;;;;4.72;77.28;101233.88;10512377;27;20135;-67
2022/01/15 16:03:50;;;;;;;6.18;5.63;;;;;;;4.50;77.00;101192.50;10508629;22;20127;-58
2022/01/15 16:08:52;;;;;;;5.50;5.00;;;;;;;4.72;76.60;101218.03;10434732;28;20052;-59
2022/01/15 16:13:55;;;;;;;7.50;6.80;;;;;;;4.77;77.05;101231.88;10482319;28;20120;-59
2022/01/15 16:18:56;;;;;;;6.05;5.22;;;;;;;4.74;76.93;101232.88;10499711;28;20054;-59
2022/01/15 16:23:57;;;;;;;5.72;5.32;;;;;;;4.73;76.84;101225.88;10493989;28;20512;-59
2022/01/15 16:28:59;;;;;;;5.80;5.30;;;;;;;4.75;76.60;101228.47;10492461;28;20524;-59
2022/01/15 16:34:00;;;;;;;5.70;5.20;;;;;;;4.67;77.00;101212.06;10497374;28;20050;-59
2022/01/15 16:39:03;;;;;;;5.75;5.07;;;;;;;4.74;76.62;101211.78;10492704;28;20051;-59
2022/01/15 16:44:04;;;;;;;6.10;5.55;;;;;;;4.75;76.62;101208.22;10490496;28;20044;-59
2022/01/15 16:49:07;;;;;;;5.63;5.13;;;;;;;4.63;76.73;101213.13;10493281;28;20045;-60
2022/01/15 16:54:10;;;;;;;5.85;5.35;;;;;;;4.62;76.97;101211.41;10493685;28;20054;-59
2022/01/15 16:59:11;;;;;;;6.47;5.93;;;;;;;4.68;76.89;101200.63;10491512;28;20320;-60
2022/01/15 17:04:13;;;;;;;5.47;5.00;;;;;;;4.63;77.25;101198.16;10491443;28;20048;-60
2022/01/15 17:09:14;;;;;;;5.22;4.82;;;;;;;4.57;76.95;101212.44;10482164;28;20051;-59
2022/01/15 17:14:16;;;;;;;8.15;7.25;;;;;;;4.59;77.18;101215.91;10483251;28;20047;-60
2022/01/15 17:19:17;;;;;;;8.68;7.82;;;;;;;4.53;77.20;101205.56;10470767;28;20090;-60
2022/01/15 17:24:19;;;;;;;7.03;6.20;;;;;;;4.56;77.28;101218.66;10473404;28;20620;-60
2022/01/15 17:29:20;;;;;;;7.65;6.95;;;;;;;4.60;77.12;101214.13;10462301;28;20071;-58
2022/01/15 17:34:21;;;;;;;6.78;6.18;;;;;;;4.50;77.12;101197.78;10484317;28;20044;-59
2022/01/15 17:39:28;;;;;;;8.02;7.30;;;;;;;4.55;77.00;101187.09;10483758;28;20051;-60
2022/01/15 17:44:30;;;;;;;8.00;7.28;;;;;;;4.60;77.10;101191.22;10479134;28;20525;-59
2022/01/15 17:49:31;;;;;;;7.85;7.15;;;;;;;4.63;76.71;101197.31;10479291;28;20132;-60
2022/01/15 17:54:33;;;;;;;8.95;8.23;;;;;;;4.70;76.67;101197.00;10486735;28;20048;-59
2022/01/15 17:59:34;;;;;;;9.40;8.50;;;;;;;4.53;77.00;101192.38;10473175;28;20047;-59
2022/01/15 18:04:36;;;;;;;10.43;9.43;;;;;;;4.65;76.58;101212.13;10494173;28;20073;-61
2022/01/15 18:09:40;;;;;;;12.13;10.93;;;;;;;4.67;76.79;101212.06;10485593;28;20048;-61
2022/01/15 18:14:41;;;;;;;11.65;10.48;;;;;;;4.62;76.75;101206.13;10487811;28;20055;-60
2022/01/15 18:19:43;;;;;;;13.38;12.07;;;;;;;4.43;77.16;101191.06;10490883;28;20189;-60
2022/01/15 18:24:44;;;;;;;12.93;11.63;;;;;;;4.40;77.38;101196.47;10491038;28;20101;-60
2022/01/15 18:29:46;;;;;;;12.60;11.30;;;;;;;4.48;76.96;101197.00;10487101;28;20737;-60
2022/01/15 18:34:48;;;;;;;11.68;10.48;;;;;;;4.40;77.12;101204.38;10484478;28;20052;-60
2022/01/15 18:39:50;;;;;;;11.43;10.32;;;;;;;4.14;78.12;101206.22;10491047;28;20052;-60
2022/01/15 18:44:52;;;;;;;11.23;10.10;;;;;;;4.12;78.56;101218.59;10492280;28;20366;-61
2022/01/15 18:49:53;;;;;;;11.40;10.30;;;;;;;4.17;79.07;101211.38;10487978;28;20066;-60
2022/01/15 18:54:55;;;;;;;11.98;10.18;;;;;;;4.21;78.55;101197.16;10492847;28;20056;-60
2022/01/15 18:59:56;;;;;;;11.68;10.52;;;;;;;4.30;78.21;101200.38;10476901;28;20048;-60
2022/01/15 19:04:57;;;;;;;11.80;10.52;;;;;;;4.36;78.19;101205.41;10490678;28;20066;-62
2022/01/15 19:09:59;;;;;;;10.13;9.23;;;;;;;4.37;77.88;101209.78;10491987;28;20052;-60
2022/01/15 19:15:03;;;;;;;11.55;10.48;;;;;;;4.27;78.55;101211.03;10482281;28;20103;-61
2022/01/15 19:20:06;;;;;;;11.35;10.10;;;;;;;4.34;77.84;101244.13;10480304;28;20147;-59
2022/01/15 19:25:10;;;;;;;13.23;11.95;;;;;;;4.40;77.95;101318.59;10498496;28;20043;-60
2022/01/15 19:30:15;;;;;;;15.48;13.45;;;;;;;4.16;78.02;101240.41;10487232;28;20052;-60
2022/01/15 19:35:17;;;;;;;;;;;;;;;4.42;77.76;101231.53;10490783;28;20063;-61
2022/01/15 19:40:20;;;;;;;13.55;12.25;;;;;;;4.43;78.05;101160.28;10477737;28;19924;-59
2022/01/15 19:45:22;;;;;;;17.30;15.70;;;;;;;4.42;77.84;101062.78;10494147;28;20048;-59
2022/01/15 19:50:24;;;;;;;14.05;12.73;;;;;;;4.37;77.68;101065.63;10492139;28;20052;-60
2022/01/15 19:55:27;;;;;;;15.73;14.23;;;;;;;4.39;78.47;101113.00;10478644;28;20055;-59
2022/01/15 20:00:33;;;;;;;14.30;12.95;;;;;;;4.41;78.23;101148.06;10485599;28;20418;-58
2022/01/15 20:05:36;;;;;;;14.30;12.85;;;;;;;4.34;78.22;101158.00;10485612;28;20048;-60
2022/01/15 20:10:39;;;;;;;13.90;12.60;;;;;;;4.52;78.11;101115.97;10491139;28;20050;-61
2022/01/15 20:15:40;;;;;;;14.93;13.48;;;;;;;4.63;77.61;101099.75;10486387;28;20078;-60
2022/01/15 20:20:44;;;;;;;15.88;14.27;;;;;;;4.64;77.87;101098.78;10472261;28;20056;-60
2022/01/15 20:25:46;;;;;;;17.57;15.57;;;;;;;4.54;77.59;101104.47;10491707;28;20052;-59
2022/01/15 20:30:49;;;;;;;16.45;14.80;;;;;;;4.41;77.85;101090.94;10489348;28;20051;-62
2022/01/15 20:35:53;;;;;;;18.02;16.23;;;;;;;4.56;77.66;101092.09;10479113;28;20440;-59
2022/01/15 20:40:54;;;;;;;17.07;15.37;;;;;;;4.48;78.06;101106.50;10472393;28;20296;-59
2022/01/15 20:45:56;;;;;;;17.55;15.75;;;;;;;4.62;77.92;101124.38;10488083;28;20139;-59
2022/01/15 20:50:57;;;;;;;17.40;15.60;;;;;;;4.55;77.76;101123.78;10490874;28;20085;-59
2022/01/15 20:55:59;;;;;;;18.48;16.67;;;;;;;4.38;78.61;101090.19;10489090;28;20070;-60
2022/01/15 21:01:01;;;;;;;17.77;15.93;;;;;;;4.46;78.20;101096.03;10486759;28;20052;-60
2022/01/15 21:06:03;;;;;;;17.58;15.77;;;;;;;4.51;77.90;101043.94;10472888;28;20453;-60
2022/01/15 21:11:08;;;;;;;19.88;17.25;;;;;;;4.48;78.06;101030.06;10469778;28;20056;-60
2022/01/15 21:16:09;;;;;;;16.08;14.40;;;;;;;4.38;78.13;101008.47;10476073;28;20059;-60
2022/01/15 21:21:11;;;;;;;19.23;17.17;;;;;;;4.50;78.37;101044.84;10496253;28;20242;-60
2022/01/15 21:26:12;;;;;;;17.52;15.70;;;;;;;4.43;77.98;101070.63;10493425;28;20135;-61
2022/01/15 21:31:18;;;;;;;17.30;15.57;;;;;;;4.41;78.01;101061.06;10486441;28;20052;-60
2022/01/15 21:36:19;;;;;;;15.65;14.20;;;;;;;4.29;78.34;101072.13;10489760;28;20043;-61
2022/01/15 21:41:23;;;;;;;16.95;15.27;;;;;;;4.39;78.50;101084.00;10488837;28;20391;-60
2022/01/15 21:46:25;;;;;;;16.63;14.85;;;;;;;4.30;78.25;101058.88;10488279;28;20082;-60
2022/01/15 21:51:26;;;;;;;15.50;13.90;;;;;;;4.34;78.20;101064.88;10481961;28;20502;-60
2022/01/15 21:56:28;;;;;;;15.50;13.90;;;;;;;4.33;78.38;101052.63;10476972;28;20049;-60
2022/01/15 22:01:31;;;;;;;16.55;14.90;;;;;;;4.35;78.20;101050.78;10467886;28;20434;-60
2022/01/15 22:06:33;;;;;;;15.18;13.73;;;;;;;4.46;77.85;101064.38;10482866;28;20283;-60
2022/01/15 22:11:40;;;;;;;15.70;14.10;;;;;;;4.49;78.25;101074.81;10482092;28;20069;-61
2022/01/15 22:16:41;;;;;;;16.02;14.43;;;;;;;4.48;77.88;101054.63;10524121;22;20039;-70
2022/01/15 22:21:44;;;;;;;17.30;15.55;;;;;;;4.43;77.88;101069.78;10508133;28;20093;-70
2022/01/15 22:26:46;;;;;;;15.65;14.15;;;;;;;4.37;78.03;101063.00;10492747;28;20138;-69
2022/01/15 22:31:47;;;;;;;19.48;15.65;;;;;;;4.29;78.19;101061.59;10483599;28;20135;-70
2022/01/15 22:36:48;;;;;;;16.95;15.25;;;;;;;4.22;78.57;101066.28;10486993;28;20317;-69
2022/01/15 22:41:50;;;;;;;18.55;16.65;;;;;;;4.18;78.73;101069.94;10488071;28;20104;-71
2022/01/15 22:46:51;;;;;;;19.08;17.08;;;;;;;4.19;78.49;101051.44;10478452;28;20475;-71
2022/01/15 22:51:53;;;;;;;20.02;17.88;;;;;;;4.22;78.40;101047.81;10492415;28;20086;-71
2022/01/15 22:56:54;;;;;;;19.08;17.08;;;;;;;4.20;78.46;101039.97;10483074;28;20052;-70
2022/01/15 23:01:56;;;;;;;20.33;18.23;;;;;;;4.28;78.21;101052.84;10476001;28;20230;-69
2022/01/15 23:06:57;;;;;;;19.65;17.63;;;;;;;4.28;78.01;101021.22;10476648;28;20132;-68
2022/01/15 23:12:08;;;;;;;20.77;18.58;;;;;;;4.34;78.05;101028.84;10483521;28;20044;-70
2022/01/15 23:17:09;;;;;;;19.05;17.08;;;;;;;4.06;79.06;101034.41;10487085;28;20050;-70
2022/01/15 23:22:13;;;;;;;20.73;18.52;;;;;;;3.99;79.60;101044.31;10477947;28;20195;-70
2022/01/15 23:27:14;;;;;;;17.70;15.90;;;;;;;4.12;79.06;101035.94;10479397;28;20054;-68